首页
METAR-TAF:

METAR-TAF

机场 :

阿纳姆, 荷兰

纬度: 52-04N, 经度: 005-53E, 海拔: 48米

当前天气观测

该预报发布于30分钟前的15:25 UTC
风速9节,风向西转西北,在西南之间变化
温度 11°C
湿度 87%
气压 992 hPa
能见度10公里或以上
少量云层高于1400英尺
少量云层高于1500英尺, 积雨云.
散云层高于1700英尺
多云层高于2400英尺
小雨

METAR: EHDL 051525Z AUTO 29009KT 230V350 9999 -RA FEW014 FEW015CB SCT017 BKN024 11/09 Q0992 RERA REDZ WHT

时间: 17:55 (15:55 UTC)


TAF: 丢失

超过4000个机场的气象观测和天气预报(METAR&TAF报告)。

可查询的气象台以黄色和红色小点在地图上表示。

将鼠标移到小点上方,可查看气象台名称。

然后点击查看天气观测和预报。

如需切换地图:点击带黑十字的绿色按钮放大地图;点击带横线的绿色按钮缩小地图;或者点击绿色箭头查看邻近地区的地图。


METAR-TAF: